Time;durP1;ratioP1;P1;durP2;ratioP2;P2;SDS_P1;SDS_P2;PMS_P1;PMS_P2;Temp;Humidity;BMP_temperature;BMP_pressure;BME280_temperature;BME280_humidity;BME280_pressure;Samples;Min_cycle;Max_cycle;Signal;HPM_P1;HPM_P2
2023/06/01 00:13:15;;;;;;;2.70;2.50;;;;;;;;;;4952627;28;20485;-90
2023/06/01 00:15:51;;;;;;;3.77;2.23;;;;;;;;;;4984628;28;20452;-89
2023/06/01 00:18:37;;;;;;;5.20;2.70;;;;;;;;;;4986894;28;20487;-88
2023/06/01 00:21:08;;;;;;;2.30;2.10;;;;;;;;;;4982374;28;20476;-88
2023/06/01 00:23:42;;;;;;;2.83;2.17;;;;;;;;;;4983750;28;20465;-89
2023/06/01 00:26:12;;;;;;;3.87;2.53;;;;;;;;;;4983189;28;20544;-88
2023/06/01 00:28:45;;;;;;;3.20;2.90;;;;;;;;;;4986236;28;20549;-89
2023/06/01 00:34:44;;;;;;;3.80;2.80;;;;;;;;;;5045466;23;20555;-88
2023/06/01 00:37:13;;;;;;;6.20;2.40;;;;;;;;;;5015024;28;20461;-88
2023/06/01 00:39:51;;;;;;;4.60;2.70;;;;;;;;;;5008679;28;20888;-87
2023/06/01 00:42:18;;;;;;;3.60;3.30;;;;;;;;;;4999227;28;20413;-86
2023/06/01 00:45:02;;;;;;;4.40;3.70;;;;;;;;;;4979059;28;20462;-86
2023/06/01 00:47:51;;;;;;;9.13;3.43;;;17.50;99.90;;;;;;4981438;28;20504;-88
2023/06/01 00:50:32;;;;;;;5.73;2.77;;;;;;;;;;4980020;28;20464;-88
2023/06/01 00:59:21;;;;;;;3.53;2.57;;;17.20;99.90;;;;;;4980827;28;20552;-86
2023/06/01 01:05:20;;;;;;;2.83;2.57;;;17.10;99.90;;;;;;4995753;28;20486;-86
2023/06/01 01:08:17;;;;;;;4.83;3.63;;;17.10;99.90;;;;;;4998977;28;20440;-85
2023/06/01 01:11:10;;;;;;;2.93;2.63;;;17.10;99.90;;;;;;4985529;28;20565;-86
2023/06/01 01:14:19;;;;;;;2.40;2.20;;;17.10;99.90;;;;;;4980398;28;20540;-86
2023/06/01 01:17:32;;;;;;;12.30;2.90;;;17.10;99.90;;;;;;4981139;28;20553;-86
2023/06/01 01:20:21;;;;;;;4.00;3.57;;;17.10;99.90;;;;;;4980971;28;20481;-86
2023/06/01 01:23:32;;;;;;;4.73;3.57;;;17.10;99.90;;;;;;4982912;28;20505;-86
2023/06/01 01:29:44;;;;;;;3.67;3.00;;;16.90;99.90;;;;;;4987364;28;20438;-86
2023/06/01 01:32:29;;;;;;;4.00;2.60;;;;;;;;;;4989896;28;20497;-87
2023/06/01 01:38:37;;;;;;;4.17;2.60;;;13.70;99.90;;;;;;4996268;28;20428;-87
2023/06/01 01:43:50;;;;;;;4.80;2.33;;;;;;;;;;4977800;28;20470;-87
2023/06/01 01:46:29;;;;;;;4.10;3.00;;;16.50;99.90;;;;;;4980480;28;20481;-86
2023/06/01 01:49:03;;;;;;;3.03;2.73;;;16.70;99.90;;;;;;4992729;28;20437;-86
2023/06/01 01:51:38;;;;;;;7.43;3.30;;;16.50;99.90;;;;;;4988942;28;20909;-84
2023/06/01 01:54:06;;;;;;;4.10;3.70;;;;;;;;;;4985574;28;20484;-87
2023/06/01 01:56:34;;;;;;;4.93;3.23;;;;;;;;;;4981461;28;20876;-87
2023/06/01 01:59:05;;;;;;;4.93;3.07;;;;;;;;;;4979451;28;20524;-89
2023/06/01 02:01:40;;;;;;;4.70;3.40;;;;;;;;;;4977383;28;20461;-87
2023/06/01 02:04:22;;;;;;;9.03;3.10;;;;;;;;;;4977364;28;20525;-88
2023/06/01 02:16:45;;;;;;;3.73;2.97;;;16.00;99.90;;;;;;4935452;29;20452;-87
2023/06/01 02:25:34;;;;;;;3.20;2.50;;;;;;;;;;4958367;28;20469;-87
2023/06/01 02:34:39;;;;;;;6.13;3.90;;;15.70;99.90;;;;;;4976226;28;20469;-88
2023/06/01 02:37:14;;;;;;;3.87;3.30;;;;;;;;;;4976463;28;20461;-87
2023/06/01 02:39:49;;;;;;;8.20;3.03;;;;;;;;;;4976872;28;20481;-87
2023/06/01 02:42:19;;;;;;;4.20;3.80;;;;;;;;;;4998191;28;20499;-86
2023/06/01 02:44:49;;;;;;;5.87;3.80;;;;;;;;;;4999777;28;20452;-87
2023/06/01 02:47:16;;;;;;;7.40;4.10;;;;;;;;;;4998250;28;20421;-87
2023/06/01 02:52:39;;;;;;;5.57;4.33;;;;;;;;;;4980500;28;20796;-86
2023/06/01 02:55:18;;;;;;;4.00;3.53;;;;;;;;;;4982762;28;20953;-87
2023/06/01 02:57:56;;;;;;;4.90;4.43;;;;;;;;;;4980521;28;20440;-88
2023/06/01 03:00:23;;;;;;;6.73;3.90;;;;;;;;;;4986883;28;20473;-87
2023/06/01 03:02:52;;;;;;;4.93;3.90;;;;;;;;;;4990257;28;20481;-87
2023/06/01 03:05:36;;;;;;;5.57;3.73;;;;;;;;;;4981227;28;20476;-87
2023/06/01 03:08:16;;;;;;;6.33;4.00;;;;;;;;;;4980635;28;20414;-87
2023/06/01 03:10:43;;;;;;;5.00;3.60;;;;;;;;;;4995664;28;20442;-86
2023/06/01 03:13:15;;;;;;;4.50;4.10;;;;;;;;;;5001060;28;20470;-87
2023/06/01 03:15:42;;;;;;;6.37;4.63;;;;;;;;;;4993871;28;20458;-86
2023/06/01 03:18:13;;;;;;;6.13;4.17;;;;;;;;;;4986925;28;20531;-88
2023/06/01 03:27:34;;;;;;;8.37;4.00;;;15.00;1.00;;;;;;4954746;28;20529;-86
2023/06/01 03:30:46;;;;;;;6.33;4.17;;;14.90;1.00;;;;;;4982254;28;20513;-86
2023/06/01 03:33:13;;;;;;;8.23;5.00;;;;;;;;;;4974701;28;20483;-87
2023/06/01 03:36:14;;;;;;;10.80;5.20;;;14.70;1.00;;;;;;4981988;28;20416;-86
2023/06/01 03:38:44;;;;;;;10.77;4.97;;;;;;;;;;4981085;28;20457;-86
2023/06/01 03:41:27;;;;;;;7.60;4.33;;;;;;;;;;4983024;28;20521;-87
2023/06/01 03:47:26;;;;;;;9.70;6.07;;;;;;;;;;4958802;28;20480;-87
2023/06/01 03:49:53;;;;;;;7.67;5.40;;;;;;;;;;4980346;28;20459;-86
2023/06/01 03:52:20;;;;;;;5.87;5.17;;;;;;;;;;4982054;28;20949;-87
2023/06/01 03:54:47;;;;;;;10.20;5.47;;;;;;;;;;4980764;28;20458;-86
2023/06/01 04:00:17;;;;;;;9.50;6.77;;;14.50;1.00;;;;;;4992939;28;21082;-86
2023/06/01 04:03:30;;;;;;;11.47;6.20;;;14.50;99.90;;;;;;4980889;28;20478;-86
2023/06/01 04:06:01;;;;;;;7.60;5.30;;;;;;;;;;4981590;28;20483;-87
2023/06/01 04:08:50;;;;;;;8.40;5.67;;;;;;;;;;4978496;28;20473;-87
2023/06/01 04:11:41;;;;;;;11.10;5.93;;;;;;;;;;4979659;28;20454;-86
2023/06/01 04:14:41;;;;;;;13.30;6.37;;;14.40;99.90;;;;;;4978549;28;20484;-86
2023/06/01 04:17:16;;;;;;;9.70;7.13;;;;;;;;;;4985361;28;20464;-87
2023/06/01 04:19:58;;;;;;;7.83;5.83;;;;;;;;;;4999430;28;20497;-87
2023/06/01 04:22:35;;;;;;;10.70;7.30;;;;;;;;;;4996005;28;20405;-87
2023/06/01 04:25:09;;;;;;;14.73;7.23;;;14.20;99.90;;;;;;4996555;28;20438;-87
2023/06/01 04:27:37;;;;;;;8.23;6.67;;;;;;;;;;4999323;28;20442;-87
2023/06/01 04:30:07;;;;;;;14.57;7.10;;;;;;;;;;5000506;28;20465;-87
2023/06/01 04:32:44;;;;;;;9.33;6.73;;;;;;;;;;4999173;28;20457;-87
2023/06/01 04:35:46;;;;;;;14.43;7.77;;;14.20;99.90;;;;;;4981574;28;20449;-87
2023/06/01 04:38:16;;;;;;;11.87;7.80;;;;;;;;;;4978443;28;20515;-87
2023/06/01 04:40:57;;;;;;;10.63;6.73;;;;;;;;;;4978043;28;20463;-87
2023/06/01 04:43:40;;;;;;;11.60;7.87;;;;;;;;;;4980985;28;20488;-87
2023/06/01 04:46:37;;;;;;;;;;;;;;;;;;;;;
2023/06/01 05:02:04;;;;;;;22.57;12.13;;;;;;;;;;4943207;29;20443;-86
2023/06/01 05:07:58;;;;;;;27.43;20.13;;;;;;;;;;5001175;23;20481;-88
2023/06/01 05:10:34;;;;;;;24.50;17.40;;;;;;;;;;4999619;28;20809;-88
2023/06/01 05:13:12;;;;;;;22.88;17.50;;;;;;;;;;5006984;28;20523;-87
2023/06/01 05:15:40;;;;;;;19.80;15.23;;;;;;;;;;5018814;28;20174;-88
2023/06/01 05:18:21;;;;;;;21.87;16.07;;;;;;;;;;5019401;28;20453;-88
2023/06/01 05:21:14;;;;;;;;;;;;;;;;;;;;;
2023/06/01 05:27:51;;;;;;;21.07;16.90;;;13.10;1.00;;;;;;4991818;28;20461;-87
2023/06/01 05:30:36;;;;;;;24.10;17.30;;;;;;;;;;4953695;28;20449;-88
2023/06/01 05:33:51;;;;;;;29.20;18.63;;;12.90;99.90;;;;;;5001056;28;20458;-87
2023/06/01 05:45:43;;;;;;;18.03;12.83;;;13.10;99.90;;;;;;4928465;29;20930;-88
2023/06/01 05:51:37;;;;;;;21.47;14.10;;;;;;;;;;4965230;28;20516;-87
2023/06/01 05:54:05;;;;;;;22.70;14.73;;;;;;;;;;4974060;28;20478;-87
2023/06/01 05:56:37;;;;;;;17.50;13.60;;;;;;;;;;4975797;28;20441;-86
2023/06/01 05:59:04;;;;;;;14.70;12.83;;;;;;;;;;5007777;28;20451;-86
2023/06/01 06:01:33;;;;;;;20.27;13.10;;;;;;;;;;5007123;28;20455;-88
2023/06/01 06:06:52;;;;;;;12.73;10.37;;;;;;;;;;5004016;28;20471;-87
2023/06/01 06:09:19;;;;;;;23.43;13.13;;;13.10;1.00;;;;;;5002691;28;20426;-88
2023/06/01 06:11:46;;;;;;;15.10;12.00;;;13.30;1.00;;;;;;5009040;28;20444;-88
2023/06/01 06:14:13;;;;;;;17.70;11.27;;;13.40;99.90;;;;;;5014652;28;20464;-88
2023/06/01 06:16:40;;;;;;;15.80;10.63;;;13.50;18.80;;;;;;5014212;28;20466;-87
2023/06/01 06:19:09;;;;;;;18.27;11.93;;;13.50;1.00;;;;;;5007383;28;20966;-88
2023/06/01 06:21:38;;;;;;;15.03;9.70;;;13.20;99.90;;;;;;5001872;28;20963;-87
2023/06/01 06:24:05;;;;;;;15.47;10.40;;;13.50;1.00;;;;;;5014206;28;20440;-87
2023/06/01 06:26:32;;;;;;;19.10;11.23;;;13.40;99.90;;;;;;5018323;28;20431;-87
2023/06/01 06:28:59;;;;;;;14.43;10.27;;;13.50;99.90;;;;;;5017988;28;20504;-88
2023/06/01 06:31:26;;;;;;;15.53;8.97;;;13.60;1.00;;;;;;5006376;28;20459;-88
2023/06/01 06:33:53;;;;;;;30.07;12.00;;;13.70;99.90;;;;;;5001390;28;20972;-88
2023/06/01 06:36:22;;;;;;;18.83;9.30;;;13.60;99.90;;;;;;5004019;28;20469;-87
2023/06/01 06:38:49;;;;;;;13.77;8.50;;;14.00;99.90;;;;;;4999039;28;20986;-88
2023/06/01 06:41:16;;;;;;;13.23;8.07;;;;;;;;;;5002226;28;20455;-87
2023/06/01 06:43:43;;;;;;;10.40;7.53;;;13.50;1.00;;;;;;5002274;28;20528;-87
2023/06/01 06:46:09;;;;;;;12.60;8.17;;;13.60;99.90;;;;;;5002784;28;20449;-90
2023/06/01 06:48:36;;;;;;;10.67;8.23;;;13.70;60.00;;;;;;5001337;28;20453;-88
2023/06/01 06:51:04;;;;;;;14.33;7.43;;;13.60;1.00;;;;;;5000564;28;20892;-88
2023/06/01 06:53:33;;;;;;;12.83;7.90;;;13.80;1.00;;;;;;4998780;28;20476;-87
2023/06/01 06:55:59;;;;;;;11.33;6.47;;;14.00;99.90;;;;;;5001035;28;20457;-88
2023/06/01 06:58:36;;;;;;;13.93;6.83;;;13.90;1.00;;;;;;5002067;28;20457;-88
2023/06/01 07:01:04;;;;;;;14.67;9.20;;;13.90;1.00;;;;;;5006035;28;20935;-88
2023/06/01 07:03:31;;;;;;;17.33;9.80;;;14.00;1.00;;;;;;5013164;28;20451;-87
2023/06/01 07:05:58;;;;;;;10.93;8.67;;;14.00;1.00;;;;;;5016500;28;20472;-88
2023/06/01 07:08:25;;;;;;;9.60;8.60;;;13.90;1.00;;;;;;5016861;28;20515;-85
2023/06/01 07:10:55;;;;;;;9.33;7.63;;;13.70;1.00;;;;;;5016526;28;20990;-89
2023/06/01 07:13:22;;;;;;;9.30;7.50;;;13.50;1.00;;;;;;5018568;28;20444;-87
2023/06/01 07:15:50;;;;;;;12.23;8.33;;;13.80;1.00;;;;;;5016586;28;20463;-83
2023/06/01 07:18:16;;;;;;;14.77;8.07;;;14.00;1.00;;;;;;5016215;28;20469;-83
2023/06/01 07:20:43;;;;;;;11.60;9.27;;;13.70;1.00;;;;;;5014387;28;20441;-83
2023/06/01 07:23:12;;;;;;;11.53;7.07;;;14.40;36.10;;;;;;5013851;28;20513;-88
2023/06/01 07:25:39;;;;;;;8.13;7.33;;;14.10;1.00;;;;;;5014298;28;20458;-88
2023/06/01 07:28:08;;;;;;;15.57;8.03;;;14.00;1.00;;;;;;5015795;28;20448;-89
2023/06/01 07:30:35;;;;;;;10.77;7.57;;;14.10;99.90;;;;;;5016956;28;20473;-88
2023/06/01 07:33:03;;;;;;;14.23;8.37;;;14.20;99.90;;;;;;5018318;28;20448;-88
2023/06/01 07:35:32;;;;;;;14.20;8.33;;;14.40;1.00;;;;;;5020254;28;20436;-88
2023/06/01 07:37:59;;;;;;;15.57;7.57;;;14.50;99.90;;;;;;5015861;28;20469;-87
2023/06/01 07:40:26;;;;;;;8.80;6.70;;;14.50;99.90;;;;;;5009262;28;20507;-87
2023/06/01 07:42:53;;;;;;;13.53;7.37;;;14.50;1.00;;;;;;5008853;28;20531;-88
2023/06/01 07:45:22;;;;;;;12.43;8.13;;;14.20;99.90;;;;;;5006515;28;20445;-88
2023/06/01 07:47:50;;;;;;;13.17;8.10;;;14.30;1.00;;;;;;5006542;28;20504;-88
2023/06/01 07:50:20;;;;;;;9.63;8.30;;;14.60;1.00;;;;;;5008311;28;21021;-87
2023/06/01 07:52:52;;;;;;;10.67;6.83;;;;;;;;;;5010760;28;20437;-87
2023/06/01 07:55:19;;;;;;;10.43;7.17;;;;;;;;;;5015314;28;20476;-85
2023/06/01 07:57:46;;;;;;;12.20;8.43;;;14.10;99.90;;;;;;5018333;28;20479;-87
2023/06/01 08:00:17;;;;;;;14.30;7.20;;;13.90;1.00;;;;;;5021168;28;20441;-88
2023/06/01 08:02:45;;;;;;;16.20;8.90;;;14.30;99.90;;;;;;5013688;28;20434;-87
2023/06/01 08:05:14;;;;;;;9.30;6.10;;;14.50;99.90;;;;;;5005348;28;20476;-87
2023/06/01 08:07:42;;;;;;;10.20;9.10;;;;;;;;;;5002659;28;20498;-89
2023/06/01 08:10:10;;;;;;;9.40;7.50;;;14.70;99.90;;;;;;5005672;28;20539;-87
2023/06/01 08:12:37;;;;;;;10.50;7.10;;;15.20;1.00;;;;;;5006529;28;20818;-85
2023/06/01 08:15:05;;;;;;;9.33;8.23;;;14.90;1.00;;;;;;5007876;28;20448;-88
2023/06/01 08:17:32;;;;;;;10.07;7.30;;;14.90;1.00;;;;;;5008704;28;20473;-87
2023/06/01 08:20:01;;;;;;;10.63;6.83;;;15.00;99.90;;;;;;5007656;28;20448;-88
2023/06/01 08:22:28;;;;;;;11.20;6.90;;;14.90;99.90;;;;;;5008563;28;20536;-87
2023/06/01 08:24:55;;;;;;;9.80;6.97;;;15.00;99.90;;;;;;5005762;28;20457;-87
2023/06/01 08:27:24;;;;;;;8.37;6.60;;;14.90;99.90;;;;;;5005562;28;20475;-88
2023/06/01 08:29:53;;;;;;;8.93;6.60;;;15.00;99.90;;;;;;5006080;28;20620;-88
2023/06/01 08:32:20;;;;;;;11.83;6.60;;;14.90;1.00;;;;;;5006568;28;20469;-87
2023/06/01 08:34:48;;;;;;;8.30;6.13;;;15.00;1.00;;;;;;5008840;28;20522;-87
2023/06/01 08:37:16;;;;;;;8.67;6.70;;;15.20;99.90;;;;;;5008508;28;20475;-85
2023/06/01 08:39:43;;;;;;;15.03;6.43;;;15.30;99.90;;;;;;5018222;28;20426;-86
2023/06/01 08:42:15;;;;;;;9.90;5.37;;;15.40;99.90;;;;;;5017751;28;20448;-85
2023/06/01 08:44:42;;;;;;;10.70;6.03;;;15.20;1.00;;;;;;5018515;28;20457;-87
2023/06/01 08:47:10;;;;;;;10.50;6.50;;;;;;;;;;5014353;28;20461;-88
2023/06/01 08:49:37;;;;;;;11.50;6.60;;;15.50;99.90;;;;;;5009606;28;20507;-86
2023/06/01 08:52:09;;;;;;;7.07;5.87;;;16.10;1.00;;;;;;5004118;28;20603;-86
2023/06/01 08:54:38;;;;;;;10.43;6.67;;;15.80;99.90;;;;;;5000650;28;20441;-90
2023/06/01 08:57:07;;;;;;;11.47;6.37;;;15.50;1.00;;;;;;5001340;28;20457;-86
2023/06/01 08:59:36;;;;;;;11.23;6.50;;;16.00;99.90;;;;;;5000437;28;20449;-88
2023/06/01 09:02:03;;;;;;;6.47;4.87;;;15.60;17.10;;;;;;5002994;28;20456;-87
2023/06/01 09:04:31;;;;;;;51.23;11.10;;;;;;;;;;5001151;28;20452;-84
2023/06/01 09:06:58;;;;;;;10.97;5.20;;;;;;;;;;4999179;28;20487;-86
2023/06/01 09:09:25;;;;;;;7.70;5.47;;;16.40;1.00;;;;;;4999262;28;20807;-85
2023/06/01 09:12:19;;;;;;;9.30;5.73;;;15.90;1.00;;;;;;4999337;28;20539;-84
2023/06/01 09:14:46;;;;;;;7.33;5.73;;;16.20;1.00;;;;;;4999066;28;20448;-84
2023/06/01 09:17:27;;;;;;;9.33;5.50;;;16.40;99.90;;;;;;4999117;28;20473;-86
2023/06/01 09:19:56;;;;;;;15.50;7.40;;;16.20;1.00;;;;;;4999267;28;20486;-88
2023/06/01 09:22:23;;;;;;;6.83;5.40;;;16.40;99.90;;;;;;4998744;28;20445;-88
2023/06/01 09:24:58;;;;;;;10.70;5.37;;;16.40;99.90;;;;;;5008360;28;20862;-89
2023/06/01 09:27:27;;;;;;;8.00;6.03;;;;;;;;;;4997781;28;20560;-88
2023/06/01 09:29:55;;;;;;;8.50;6.17;;;;;;;;;;5000300;28;20424;-87
2023/06/01 09:32:22;;;;;;;7.03;5.27;;;;;;;;;;5001000;28;20516;-86
2023/06/01 09:34:55;;;;;;;7.93;5.57;;;16.30;99.90;;;;;;5007385;28;20449;-88
2023/06/01 09:37:23;;;;;;;6.00;5.23;;;;;;;;;;5012079;28;20537;-88
2023/06/01 09:39:50;;;;;;;13.63;6.70;;;;;;;;;;5012026;28;20453;-87
2023/06/01 09:42:17;;;;;;;12.53;6.40;;;16.50;99.90;;;;;;5008442;28;20449;-88
2023/06/01 09:44:46;;;;;;;14.13;6.77;;;16.70;99.90;;;;;;5017612;28;20457;-88
2023/06/01 09:47:13;;;;;;;12.40;7.23;;;16.70;99.90;;;;;;5011419;28;20557;-89
2023/06/01 09:49:41;;;;;;;8.87;7.00;;;16.50;99.90;;;;;;5004811;28;20444;-88
2023/06/01 09:52:14;;;;;;;16.90;8.43;;;16.70;99.90;;;;;;5001215;28;20463;-88
2023/06/01 09:54:43;;;;;;;9.60;5.90;;;16.80;99.90;;;;;;4999641;28;20944;-88
2023/06/01 09:57:10;;;;;;;11.97;7.57;;;17.00;99.90;;;;;;5006951;28;20470;-88
2023/06/01 09:59:42;;;;;;;7.77;6.30;;;16.90;1.00;;;;;;5016452;28;20425;-88
2023/06/01 10:02:14;;;;;;;12.13;7.70;;;17.30;99.90;;;;;;5001526;28;20476;-88
2023/06/01 10:04:45;;;;;;;14.03;6.50;;;17.30;99.90;;;;;;5008407;28;20418;-88
2023/06/01 10:07:14;;;;;;;10.87;7.20;;;17.30;99.90;;;;;;4962445;28;1115310;-88
2023/06/01 10:09:43;;;;;;;8.57;7.37;;;17.30;99.90;;;;;;4999323;28;20273;-88
2023/06/01 10:12:11;;;;;;;9.70;8.70;;;17.50;99.90;;;;;;4999053;28;21094;-88
2023/06/01 10:14:39;;;;;;;13.63;8.50;;;17.70;99.90;;;;;;4999007;28;20451;-88
2023/06/01 10:17:07;;;;;;;13.00;8.60;;;17.60;1.00;;;;;;4999856;28;20591;-88
2023/06/01 10:19:37;;;;;;;12.37;9.43;;;17.50;99.90;;;;;;4999145;28;20441;-88
2023/06/01 10:22:05;;;;;;;10.00;8.47;;;17.80;99.90;;;;;;4999154;28;20440;-88
2023/06/01 10:24:32;;;;;;;12.03;8.93;;;17.70;99.90;;;;;;4998122;28;20485;-88
2023/06/01 10:27:10;;;;;;;14.33;9.00;;;17.70;99.90;;;;;;5000228;28;20468;-88
2023/06/01 10:29:38;;;;;;;19.00;9.93;;;17.90;99.90;;;;;;5002012;28;20564;-88
2023/06/01 10:32:06;;;;;;;11.50;9.60;;;17.90;99.90;;;;;;5001081;28;20575;-88
2023/06/01 10:34:45;;;;;;;10.93;9.50;;;17.50;1.00;;;;;;5002175;28;20880;-88
2023/06/01 10:37:13;;;;;;;16.77;11.20;;;18.30;99.90;;;;;;5008289;28;20508;-88
2023/06/01 10:39:41;;;;;;;19.67;10.30;;;18.00;99.90;;;;;;5009603;28;20464;-88
2023/06/01 10:42:39;;;;;;;13.97;8.80;;;17.90;1.00;;;;;;5001552;28;20480;-89
2023/06/01 10:45:08;;;;;;;14.40;11.13;;;18.20;99.90;;;;;;5017915;28;20441;-88
2023/06/01 10:47:51;;;;;;;14.50;10.73;;;18.10;99.90;;;;;;5018353;28;20473;-88
2023/06/01 10:50:20;;;;;;;16.90;11.77;;;18.20;99.90;;;;;;5018733;28;20448;-87
2023/06/01 10:52:47;;;;;;;14.30;10.40;;;;;;;;;;5018605;28;20519;-88
2023/06/01 10:55:28;;;;;;;11.70;9.47;;;18.50;99.90;;;;;;5018583;28;20473;-87
2023/06/01 10:58:23;;;;;;;14.53;10.90;;;18.40;99.90;;;;;;5018511;28;20468;-87
2023/06/01 11:00:50;;;;;;;19.00;9.73;;;18.50;99.90;;;;;;5017392;28;20456;-88
2023/06/01 11:03:44;;;;;;;13.03;11.30;;;18.50;99.90;;;;;;5015802;28;20428;-89
2023/06/01 11:06:28;;;;;;;15.20;9.90;;;18.80;99.90;;;;;;5017342;28;20488;-91
2023/06/01 11:08:58;;;;;;;13.83;9.97;;;18.70;99.90;;;;;;5015383;23;20500;-84
2023/06/01 11:11:59;;;;;;;15.50;11.70;;;18.80;99.90;;;;;;5002402;28;20567;-85
2023/06/01 11:14:29;;;;;;;14.40;9.97;;;18.80;99.90;;;;;;5001257;28;20436;-85
2023/06/01 11:16:58;;;;;;;17.37;11.50;;;18.70;99.90;;;;;;5012382;28;20916;-85
2023/06/01 11:19:27;;;;;;;9.73;8.70;;;18.70;99.90;;;;;;5012930;28;20503;-84
2023/06/01 11:22:01;;;;;;;12.30;9.50;;;18.80;99.90;;;;;;5016507;28;20444;-85
2023/06/01 11:24:36;;;;;;;11.53;10.07;;;19.00;99.90;;;;;;5015516;28;20465;-85
2023/06/01 11:27:07;;;;;;;17.67;12.67;;;19.10;99.90;;;;;;5015080;28;20499;-85
2023/06/01 11:29:34;;;;;;;16.47;10.30;;;19.10;99.90;;;;;;5012635;28;20464;-86
2023/06/01 11:32:03;;;;;;;16.10;10.23;;;19.50;1.00;;;;;;5010269;28;20484;-85
2023/06/01 11:34:33;;;;;;;11.73;9.13;;;19.20;99.90;;;;;;5009232;28;20919;-85
2023/06/01 11:37:02;;;;;;;12.30;9.00;;;19.30;99.90;;;;;;5004093;28;20447;-84
2023/06/01 11:39:29;;;;;;;9.53;8.53;;;19.50;99.90;;;;;;5001707;28;20461;-85
2023/06/01 11:42:06;;;;;;;21.13;10.07;;;19.50;99.90;;;;;;5001313;28;20437;-85
2023/06/01 11:44:33;;;;;;;11.60;10.43;;;19.60;99.90;;;;;;5000211;28;20436;-85
2023/06/01 11:47:00;;;;;;;12.63;10.10;;;19.70;99.90;;;;;;4999975;28;20519;-84
2023/06/01 11:49:28;;;;;;;12.13;9.97;;;19.70;99.90;;;;;;5000170;28;20448;-85
2023/06/01 11:51:57;;;;;;;14.00;9.77;;;19.60;99.90;;;;;;5000377;28;20527;-86
2023/06/01 11:54:29;;;;;;;17.80;9.40;;;19.50;99.90;;;;;;5000131;28;20453;-85
2023/06/01 11:56:56;;;;;;;11.90;8.80;;;19.40;99.90;;;;;;5008215;28;20508;-85
2023/06/01 11:59:24;;;;;;;10.47;8.67;;;19.40;99.90;;;;;;5007942;28;20445;-85
2023/06/01 12:01:54;;;;;;;14.30;8.60;;;19.50;99.90;;;;;;5005003;28;21001;-85
2023/06/01 12:04:24;;;;;;;12.47;8.63;;;19.60;99.90;;;;;;5000057;28;20516;-85
2023/06/01 12:06:52;;;;;;;13.20;9.50;;;19.60;99.90;;;;;;4999309;28;20552;-85
2023/06/01 12:09:20;;;;;;;11.73;9.00;;;19.60;99.90;;;;;;4999595;28;20442;-85
2023/06/01 12:11:49;;;;;;;11.13;8.80;;;19.70;99.90;;;;;;5002749;28;20559;-85
2023/06/01 12:14:16;;;;;;;12.83;8.90;;;19.80;99.90;;;;;;5000424;28;20873;-86
2023/06/01 12:16:56;;;;;;;11.70;7.47;;;20.40;1.00;;;;;;4998487;28;20807;-85
2023/06/01 12:19:23;;;;;;;12.70;8.70;;;20.10;1.00;;;;;;4998692;28;20970;-86
2023/06/01 12:21:51;;;;;;;13.03;8.53;;;19.90;99.90;;;;;;4998501;28;20447;-86
2023/06/01 12:24:19;;;;;;;12.77;8.80;;;19.90;99.90;;;;;;4999144;28;20488;-85
2023/06/01 12:26:48;;;;;;;10.87;8.37;;;20.10;1.00;;;;;;4998453;28;20956;-85
2023/06/01 12:29:15;;;;;;;10.00;8.67;;;19.80;99.90;;;;;;4998821;28;20508;-85
2023/06/01 12:31:55;;;;;;;13.17;7.80;;;20.00;99.90;;;;;;4999364;28;20489;-86
2023/06/01 12:34:23;;;;;;;8.00;7.20;;;19.90;99.90;;;;;;5002246;28;20437;-85
2023/06/01 12:36:50;;;;;;;10.40;8.23;;;19.50;1.00;;;;;;5015257;28;20472;-85
2023/06/01 12:39:35;;;;;;;12.40;8.10;;;19.90;99.90;;;;;;5013803;28;20481;-86
2023/06/01 12:42:04;;;;;;;12.27;8.33;;;20.20;99.90;;;;;;5008355;28;20425;-86
2023/06/01 12:44:34;;;;;;;11.00;7.70;;;20.30;99.90;;;;;;5015237;28;20457;-85
2023/06/01 12:47:02;;;;;;;12.33;7.63;;;20.30;99.90;;;;;;5016307;28;20453;-86
2023/06/01 12:49:29;;;;;;;15.53;7.97;;;20.40;99.90;;;;;;5016982;28;20463;-85
2023/06/01 12:51:56;;;;;;;8.63;7.17;;;20.40;99.90;;;;;;5017583;28;20465;-85
2023/06/01 12:54:23;;;;;;;10.23;8.53;;;20.40;99.90;;;;;;5017725;28;20453;-86
2023/06/01 12:56:51;;;;;;;10.03;7.43;;;20.30;99.90;;;;;;5013194;28;20441;-86
2023/06/01 12:59:19;;;;;;;11.03;7.00;;;20.50;99.90;;;;;;5013540;28;20483;-85
2023/06/01 13:01:46;;;;;;;7.77;6.27;;;20.50;99.90;;;;;;5014604;28;20478;-85
2023/06/01 13:04:13;;;;;;;8.87;7.20;;;20.60;99.90;;;;;;5014869;28;20445;-85
2023/06/01 13:06:40;;;;;;;8.33;6.30;;;20.80;99.90;;;;;;5013014;28;20479;-86
2023/06/01 13:09:07;;;;;;;7.73;7.03;;;20.70;99.90;;;;;;5008370;28;20444;-85
2023/06/01 13:11:34;;;;;;;11.27;7.07;;;20.70;99.90;;;;;;5011696;28;20460;-86
2023/06/01 13:14:02;;;;;;;8.00;7.30;;;20.80;1.00;;;;;;4998990;28;20448;-86
2023/06/01 13:16:32;;;;;;;9.20;6.60;;;20.60;99.90;;;;;;4997884;28;20456;-87
2023/06/01 13:19:00;;;;;;;10.20;6.67;;;20.50;99.90;;;;;;4998135;28;20515;-86
2023/06/01 13:21:27;;;;;;;8.83;6.63;;;20.90;99.90;;;;;;4998209;28;20503;-85
2023/06/01 13:23:54;;;;;;;8.73;6.60;;;20.70;99.90;;;;;;4998418;28;20489;-85
2023/06/01 13:26:22;;;;;;;9.30;6.43;;;20.70;99.90;;;;;;4997789;28;20954;-86
2023/06/01 13:28:49;;;;;;;9.60;6.50;;;20.80;99.90;;;;;;4998660;28;20472;-85
2023/06/01 13:31:15;;;;;;;9.07;7.07;;;20.80;99.90;;;;;;5001654;28;20543;-85
2023/06/01 13:33:44;;;;;;;10.53;6.37;;;20.90;99.90;;;;;;5001105;28;20558;-85
2023/06/01 13:36:11;;;;;;;10.33;5.90;;;21.00;99.90;;;;;;4999615;28;20449;-85
2023/06/01 13:38:37;;;;;;;6.27;5.63;;;21.00;99.90;;;;;;4997478;28;20508;-85
2023/06/01 13:41:04;;;;;;;11.00;6.90;;;21.00;99.90;;;;;;4998317;28;20457;-85
2023/06/01 13:43:31;;;;;;;10.30;6.33;;;20.80;99.90;;;;;;4998483;28;20823;-86
2023/06/01 13:45:58;;;;;;;9.23;6.37;;;20.80;99.90;;;;;;5009220;28;20971;-86
2023/06/01 13:48:25;;;;;;;11.37;6.20;;;20.70;99.90;;;;;;5008806;28;20480;-85
2023/06/01 13:50:53;;;;;;;10.07;6.90;;;20.70;99.90;;;;;;5014316;28;20433;-85
2023/06/01 13:53:20;;;;;;;8.00;6.10;;;20.90;99.90;;;;;;5018486;28;20493;-86
2023/06/01 13:55:47;;;;;;;11.10;6.50;;;21.10;99.90;;;;;;5016958;28;20441;-85
2023/06/01 13:58:14;;;;;;;11.03;6.20;;;21.30;99.90;;;;;;5005553;28;20596;-84
2023/06/01 14:00:43;;;;;;;8.53;5.87;;;21.30;99.90;;;;;;5013749;28;20476;-85
2023/06/01 14:03:10;;;;;;;8.17;5.73;;;21.70;1.00;;;;;;5011496;28;20460;-85
2023/06/01 14:05:36;;;;;;;8.07;5.63;;;21.20;99.90;;;;;;5008092;28;20516;-84
2023/06/01 14:08:05;;;;;;;6.90;6.20;;;21.20;99.90;;;;;;5003674;28;20523;-85
2023/06/01 14:10:33;;;;;;;8.50;5.73;;;21.00;1.00;;;;;;5001475;28;20457;-85
2023/06/01 14:13:00;;;;;;;8.17;6.50;;;21.10;99.90;;;;;;4998468;28;20491;-86
2023/06/01 14:15:27;;;;;;;9.00;6.57;;;21.10;99.90;;;;;;4998783;28;20488;-86
2023/06/01 14:17:55;;;;;;;7.80;6.37;;;21.20;99.90;;;;;;4997999;28;20499;-85
2023/06/01 14:20:22;;;;;;;8.80;6.10;;;21.30;1.00;;;;;;4996816;28;20460;-85
2023/06/01 14:22:49;;;;;;;12.20;5.50;;;21.20;99.90;;;;;;4997164;28;20451;-85
2023/06/01 14:25:18;;;;;;;9.63;5.57;;;21.30;99.90;;;;;;4996732;28;20480;-86
2023/06/01 14:27:44;;;;;;;8.53;5.40;;;21.40;99.90;;;;;;4997815;28;20472;-86
2023/06/01 14:30:12;;;;;;;6.10;5.50;;;21.40;99.90;;;;;;5001289;28;20453;-85
2023/06/01 14:32:39;;;;;;;7.83;5.50;;;21.30;99.90;;;;;;4998959;28;20844;-85
2023/06/01 14:35:07;;;;;;;8.60;6.13;;;21.40;99.90;;;;;;4997556;28;20445;-86
2023/06/01 14:37:34;;;;;;;7.03;5.90;;;21.40;99.90;;;;;;4997103;28;20488;-86
2023/06/01 14:40:01;;;;;;;10.17;6.40;;;;;;;;;;4999063;28;20518;-85
2023/06/01 14:42:29;;;;;;;6.10;5.20;;;21.30;99.90;;;;;;5001522;28;20452;-85
2023/06/01 14:44:56;;;;;;;10.70;5.50;;;21.20;99.90;;;;;;5001221;28;20946;-85
2023/06/01 14:47:23;;;;;;;8.20;5.20;;;21.20;99.90;;;;;;5001548;28;20468;-85
2023/06/01 14:49:51;;;;;;;12.63;5.83;;;21.40;99.90;;;;;;5000772;28;20539;-85
2023/06/01 14:52:19;;;;;;;5.27;4.77;;;21.40;99.90;;;;;;5013480;28;20554;-86
2023/06/01 14:54:46;;;;;;;7.00;5.20;;;21.40;99.90;;;;;;5017349;28;20526;-85
2023/06/01 14:57:12;;;;;;;11.20;5.03;;;21.40;99.90;;;;;;5012629;28;20469;-85
2023/06/01 14:59:41;;;;;;;6.43;5.00;;;21.80;1.00;;;;;;5003401;28;20952;-85
2023/06/01 15:02:08;;;;;;;7.87;5.10;;;21.50;99.90;;;;;;5001299;28;20451;-86
2023/06/01 15:04:35;;;;;;;6.83;5.50;;;21.50;99.90;;;;;;5002423;28;20445;-85
2023/06/01 15:07:04;;;;;;;7.80;5.17;;;21.40;99.90;;;;;;5000864;28;20504;-86
2023/06/01 15:09:31;;;;;;;7.20;5.50;;;21.60;99.90;;;;;;5004178;28;20436;-86
2023/06/01 15:11:58;;;;;;;5.97;5.13;;;21.80;99.90;;;;;;5009935;28;20512;-85
2023/06/01 15:14:25;;;;;;;8.30;5.80;;;21.50;99.90;;;;;;5005269;28;20872;-86
2023/06/01 15:16:55;;;;;;;13.37;6.20;;;21.50;99.90;;;;;;5001287;28;20559;-86
2023/06/01 15:19:21;;;;;;;6.53;4.77;;;21.60;99.90;;;;;;5003246;28;20801;-85
2023/06/01 15:21:48;;;;;;;6.90;5.80;;;21.50;99.90;;;;;;5001711;28;20548;-85
2023/06/01 15:24:15;;;;;;;8.40;7.03;;;21.50;99.90;;;;;;5003647;28;20448;-86